sensor_id;sensor_type;location;lat;lon;timestamp;pressure;altitude;pressure_sealevel;temperature;humidity
49709;BME280;35601;55.902;13.606;2023-04-22T00:02:02;100997.25;;;0.83;49.44
49709;BME280;35601;55.902;13.606;2023-04-22T00:04:27;101001.60;;;0.70;49.59
49709;BME280;35601;55.902;13.606;2023-04-22T00:06:54;101000.51;;;0.56;49.86
49709;BME280;35601;55.902;13.606;2023-04-22T00:09:18;100998.14;;;0.49;50.05
49709;BME280;35601;55.902;13.606;2023-04-22T00:11:43;100994.43;;;0.44;50.36
49709;BME280;35601;55.902;13.606;2023-04-22T00:14:09;100994.37;;;0.88;50.69
49709;BME280;35601;55.902;13.606;2023-04-22T00:16:34;100992.52;;;0.70;49.72
49709;BME280;35601;55.902;13.606;2023-04-22T00:19:01;100994.17;;;0.58;49.62
49709;BME280;35601;55.902;13.606;2023-04-22T00:21:25;100991.91;;;0.60;49.45
49709;BME280;35601;55.902;13.606;2023-04-22T00:23:51;100988.60;;;-0.06;49.51
49709;BME280;35601;55.902;13.606;2023-04-22T00:26:16;100985.06;;;0.17;50.68
49709;BME280;35601;55.902;13.606;2023-04-22T00:28:41;100983.65;;;0.38;51.29
49709;BME280;35601;55.902;13.606;2023-04-22T00:31:07;100983.59;;;0.33;51.70
49709;BME280;35601;55.902;13.606;2023-04-22T00:33:33;100980.70;;;0.40;51.60
49709;BME280;35601;55.902;13.606;2023-04-22T00:35:58;100978.91;;;0.32;51.92
49709;BME280;35601;55.902;13.606;2023-04-22T00:38:23;100979.63;;;0.40;51.33
49709;BME280;35601;55.902;13.606;2023-04-22T00:40:49;100980.49;;;0.41;51.54
49709;BME280;35601;55.902;13.606;2023-04-22T00:43:15;100979.48;;;0.24;51.34
49709;BME280;35601;55.902;13.606;2023-04-22T00:45:41;100978.25;;;0.52;51.32
49709;BME280;35601;55.902;13.606;2023-04-22T00:48:06;100974.77;;;0.61;51.07
49709;BME280;35601;55.902;13.606;2023-04-22T00:50:32;100972.24;;;0.57;51.23
49709;BME280;35601;55.902;13.606;2023-04-22T00:52:57;100968.16;;;0.61;51.33
49709;BME280;35601;55.902;13.606;2023-04-22T00:55:21;100970.04;;;0.61;51.60
49709;BME280;35601;55.902;13.606;2023-04-22T00:57:48;100970.63;;;0.60;51.56
49709;BME280;35601;55.902;13.606;2023-04-22T01:00:13;100973.05;;;0.62;51.58
49709;BME280;35601;55.902;13.606;2023-04-22T01:02:38;100972.87;;;0.45;52.48
49709;BME280;35601;55.902;13.606;2023-04-22T01:05:04;100971.63;;;0.47;52.64
49709;BME280;35601;55.902;13.606;2023-04-22T01:07:28;100971.89;;;0.40;53.09
49709;BME280;35601;55.902;13.606;2023-04-22T01:09:54;100974.05;;;0.45;52.90
49709;BME280;35601;55.902;13.606;2023-04-22T01:12:19;100973.62;;;0.45;53.00
49709;BME280;35601;55.902;13.606;2023-04-22T01:14:46;100975.54;;;0.41;53.25
49709;BME280;35601;55.902;13.606;2023-04-22T01:17:11;100975.02;;;0.48;52.85
49709;BME280;35601;55.902;13.606;2023-04-22T01:19:36;100974.42;;;0.43;53.34
49709;BME280;35601;55.902;13.606;2023-04-22T01:22:01;100974.91;;;0.45;52.95
49709;BME280;35601;55.902;13.606;2023-04-22T01:24:27;100974.85;;;0.45;53.17
49709;BME280;35601;55.902;13.606;2023-04-22T01:26:52;100973.72;;;0.45;53.47
49709;BME280;35601;55.902;13.606;2023-04-22T01:29:18;100974.27;;;-0.00;53.16
49709;BME280;35601;55.902;13.606;2023-04-22T01:31:43;100974.74;;;-0.05;53.50
49709;BME280;35601;55.902;13.606;2023-04-22T01:34:08;100971.52;;;0.44;53.49
49709;BME280;35601;55.902;13.606;2023-04-22T01:36:34;100968.66;;;0.38;53.53
49709;BME280;35601;55.902;13.606;2023-04-22T01:38:59;100968.01;;;0.35;53.64
49709;BME280;35601;55.902;13.606;2023-04-22T01:41:25;100960.98;;;0.60;53.37
49709;BME280;35601;55.902;13.606;2023-04-22T01:43:52;100962.80;;;0.36;53.11
49709;BME280;35601;55.902;13.606;2023-04-22T01:46:16;100960.16;;;0.32;53.22
49709;BME280;35601;55.902;13.606;2023-04-22T01:48:41;100960.64;;;0.28;53.36
49709;BME280;35601;55.902;13.606;2023-04-22T01:51:07;100959.74;;;0.34;53.19
49709;BME280;35601;55.902;13.606;2023-04-22T01:53:32;100959.77;;;0.25;53.85
49709;BME280;35601;55.902;13.606;2023-04-22T01:55:57;100959.55;;;0.19;54.12
49709;BME280;35601;55.902;13.606;2023-04-22T01:58:22;100956.92;;;0.21;54.03
49709;BME280;35601;55.902;13.606;2023-04-22T02:00:48;100957.10;;;0.04;53.51
49709;BME280;35601;55.902;13.606;2023-04-22T02:03:13;100955.70;;;0.31;52.92
49709;BME280;35601;55.902;13.606;2023-04-22T02:05:39;100952.15;;;0.03;52.49
49709;BME280;35601;55.902;13.606;2023-04-22T02:08:04;100951.29;;;0.51;52.54
49709;BME280;35601;55.902;13.606;2023-04-22T02:10:31;100949.43;;;0.10;53.66
49709;BME280;35601;55.902;13.606;2023-04-22T02:12:55;100949.22;;;0.37;53.88
49709;BME280;35601;55.902;13.606;2023-04-22T02:15:22;100950.32;;;-0.03;53.56
49709;BME280;35601;55.902;13.606;2023-04-22T02:17:46;100950.58;;;-0.04;53.86
49709;BME280;35601;55.902;13.606;2023-04-22T02:20:11;100943.82;;;-0.01;53.87
49709;BME280;35601;55.902;13.606;2023-04-22T02:22:37;100938.52;;;0.06;53.46
49709;BME280;35601;55.902;13.606;2023-04-22T02:25:02;100937.45;;;0.31;52.75
49709;BME280;35601;55.902;13.606;2023-04-22T02:27:27;100933.26;;;0.06;52.48
49709;BME280;35601;55.902;13.606;2023-04-22T02:29:53;100927.88;;;0.26;52.44
49709;BME280;35601;55.902;13.606;2023-04-22T02:32:19;100923.07;;;0.12;53.23
49709;BME280;35601;55.902;13.606;2023-04-22T02:34:44;100919.26;;;0.10;53.31
49709;BME280;35601;55.902;13.606;2023-04-22T02:37:09;100919.02;;;0.02;54.15
49709;BME280;35601;55.902;13.606;2023-04-22T02:39:34;100919.16;;;-0.08;54.74
49709;BME280;35601;55.902;13.606;2023-04-22T02:42:00;100923.55;;;-0.37;54.85
49709;BME280;35601;55.902;13.606;2023-04-22T02:44:27;100924.56;;;-0.16;54.43
49709;BME280;35601;55.902;13.606;2023-04-22T02:46:52;100923.85;;;0.06;54.18
49709;BME280;35601;55.902;13.606;2023-04-22T02:49:17;100919.14;;;-0.40;53.68
49709;BME280;35601;55.902;13.606;2023-04-22T02:51:42;100916.21;;;0.18;52.88
49709;BME280;35601;55.902;13.606;2023-04-22T02:54:07;100913.37;;;-0.02;52.70
49709;BME280;35601;55.902;13.606;2023-04-22T02:56:34;100908.91;;;-0.29;52.45
49709;BME280;35601;55.902;13.606;2023-04-22T02:58:58;100909.82;;;-0.31;52.61
49709;BME280;35601;55.902;13.606;2023-04-22T03:01:24;100906.75;;;-0.34;52.91
49709;BME280;35601;55.902;13.606;2023-04-22T03:03:49;100905.76;;;-0.43;53.45
49709;BME280;35601;55.902;13.606;2023-04-22T03:06:14;100902.50;;;-0.36;54.16
49709;BME280;35601;55.902;13.606;2023-04-22T03:08:39;100902.92;;;-0.14;54.04
49709;BME280;35601;55.902;13.606;2023-04-22T03:11:05;100903.87;;;-0.67;54.31
49709;BME280;35601;55.902;13.606;2023-04-22T03:13:30;100901.98;;;-0.47;54.23
49709;BME280;35601;55.902;13.606;2023-04-22T03:15:57;100901.12;;;-0.48;54.02
49709;BME280;35601;55.902;13.606;2023-04-22T03:18:21;100898.89;;;-0.55;54.22
49709;BME280;35601;55.902;13.606;2023-04-22T03:20:47;100899.06;;;-0.68;54.57
49709;BME280;35601;55.902;13.606;2023-04-22T03:23:12;100896.87;;;-0.68;54.56
49709;BME280;35601;55.902;13.606;2023-04-22T03:25:39;100896.68;;;-0.75;54.81
49709;BME280;35601;55.902;13.606;2023-04-22T03:28:03;100894.10;;;-0.52;54.65
49709;BME280;35601;55.902;13.606;2023-04-22T03:30:29;100892.35;;;-0.76;55.31
49709;BME280;35601;55.902;13.606;2023-04-22T03:32:54;100889.57;;;-0.72;55.35
49709;BME280;35601;55.902;13.606;2023-04-22T03:35:19;100885.41;;;-0.80;55.30
49709;BME280;35601;55.902;13.606;2023-04-22T03:37:44;100885.79;;;-0.80;55.57
49709;BME280;35601;55.902;13.606;2023-04-22T03:40:10;100883.80;;;-0.82;56.19
49709;BME280;35601;55.902;13.606;2023-04-22T03:42:35;100879.93;;;-0.82;56.29
49709;BME280;35601;55.902;13.606;2023-04-22T03:45:01;100875.38;;;-0.81;56.17
49709;BME280;35601;55.902;13.606;2023-04-22T03:47:26;100874.86;;;-0.77;56.17
49709;BME280;35601;55.902;13.606;2023-04-22T03:49:51;100872.08;;;-0.76;56.08
49709;BME280;35601;55.902;13.606;2023-04-22T03:52:17;100869.48;;;-0.67;56.51
49709;BME280;35601;55.902;13.606;2023-04-22T03:54:42;100865.57;;;-0.65;56.63
49709;BME280;35601;55.902;13.606;2023-04-22T03:57:08;100866.47;;;-0.53;56.85
49709;BME280;35601;55.902;13.606;2023-04-22T03:59:33;100867.04;;;-0.43;56.99
49709;BME280;35601;55.902;13.606;2023-04-22T04:02:00;100864.39;;;-0.32;57.30
49709;BME280;35601;55.902;13.606;2023-04-22T04:04:24;100858.31;;;-0.19;56.67
49709;BME280;35601;55.902;13.606;2023-04-22T04:06:50;100857.43;;;-0.09;56.66
49709;BME280;35601;55.902;13.606;2023-04-22T04:09:15;100856.22;;;0.03;56.34
49709;BME280;35601;55.902;13.606;2023-04-22T04:11:42;100849.47;;;-0.14;56.49
49709;BME280;35601;55.902;13.606;2023-04-22T04:14:07;100847.60;;;-0.11;56.42
49709;BME280;35601;55.902;13.606;2023-04-22T04:16:31;100847.56;;;-0.04;56.37
49709;BME280;35601;55.902;13.606;2023-04-22T04:18:56;100843.59;;;0.22;56.40
49709;BME280;35601;55.902;13.606;2023-04-22T04:21:22;100842.19;;;-0.29;56.61
49709;BME280;35601;55.902;13.606;2023-04-22T04:23:49;100839.37;;;0.36;56.56
49709;BME280;35601;55.902;13.606;2023-04-22T04:26:13;100836.43;;;0.06;56.25
49709;BME280;35601;55.902;13.606;2023-04-22T04:28:39;100838.22;;;0.23;56.07
49709;BME280;35601;55.902;13.606;2023-04-22T04:31:04;100837.63;;;0.32;55.79
49709;BME280;35601;55.902;13.606;2023-04-22T04:33:30;100838.39;;;0.49;55.43
49709;BME280;35601;55.902;13.606;2023-04-22T04:35:54;100834.41;;;0.61;55.52
49709;BME280;35601;55.902;13.606;2023-04-22T04:38:20;100833.28;;;0.78;55.21
49709;BME280;35601;55.902;13.606;2023-04-22T04:40:45;100830.80;;;0.90;54.28
49709;BME280;35601;55.902;13.606;2023-04-22T04:43:11;100826.64;;;1.08;54.22
49709;BME280;35601;55.902;13.606;2023-04-22T04:45:36;100826.83;;;1.29;53.65
49709;BME280;35601;55.902;13.606;2023-04-22T04:48:02;100825.66;;;1.06;52.90
49709;BME280;35601;55.902;13.606;2023-04-22T04:50:28;100829.53;;;1.77;52.10
49709;BME280;35601;55.902;13.606;2023-04-22T04:52:54;100828.81;;;1.75;51.37
49709;BME280;35601;55.902;13.606;2023-04-22T04:55:18;100828.82;;;2.15;50.00
49709;BME280;35601;55.902;13.606;2023-04-22T04:57:44;100829.24;;;2.52;49.50
49709;BME280;35601;55.902;13.606;2023-04-22T05:00:11;100829.80;;;2.76;48.54
49709;BME280;35601;55.902;13.606;2023-04-22T05:02:34;100830.51;;;3.42;47.36
49709;BME280;35601;55.902;13.606;2023-04-22T05:04:59;100831.46;;;3.35;46.59
49709;BME280;35601;55.902;13.606;2023-04-22T05:07:24;100826.53;;;3.73;45.94
49709;BME280;35601;55.902;13.606;2023-04-22T05:09:50;100824.64;;;4.16;45.69
49709;BME280;35601;55.902;13.606;2023-04-22T05:12:16;100823.45;;;4.14;45.08
49709;BME280;35601;55.902;13.606;2023-04-22T05:14:41;100820.90;;;4.57;45.01
49709;BME280;35601;55.902;13.606;2023-04-22T05:17:06;100820.34;;;5.01;44.65
49709;BME280;35601;55.902;13.606;2023-04-22T05:19:31;100813.64;;;5.45;43.48
49709;BME280;35601;55.902;13.606;2023-04-22T05:21:57;100809.82;;;5.25;41.24
49709;BME280;35601;55.902;13.606;2023-04-22T05:24:22;100805.85;;;5.58;40.19
49709;BME280;35601;55.902;13.606;2023-04-22T05:26:47;100804.03;;;5.91;39.32
49709;BME280;35601;55.902;13.606;2023-04-22T05:29:12;100800.24;;;6.27;40.17
49709;BME280;35601;55.902;13.606;2023-04-22T05:31:39;100798.86;;;5.98;40.12
49709;BME280;35601;55.902;13.606;2023-04-22T05:34:03;100801.87;;;6.36;39.09
49709;BME280;35601;55.902;13.606;2023-04-22T05:36:29;100798.32;;;6.73;38.75
49709;BME280;35601;55.902;13.606;2023-04-22T05:38:54;100799.92;;;7.06;37.87
49709;BME280;35601;55.902;13.606;2023-04-22T05:41:19;100796.67;;;6.99;36.79
49709;BME280;35601;55.902;13.606;2023-04-22T05:43:44;100798.24;;;7.65;36.82
49709;BME280;35601;55.902;13.606;2023-04-22T05:46:09;100791.38;;;7.54;36.09
49709;BME280;35601;55.902;13.606;2023-04-22T05:48:35;100783.88;;;7.68;35.87
49709;BME280;35601;55.902;13.606;2023-04-22T05:51:00;100780.09;;;7.72;36.50
49709;BME280;35601;55.902;13.606;2023-04-22T05:53:25;100779.36;;;8.05;35.97
49709;BME280;35601;55.902;13.606;2023-04-22T05:55:51;100781.38;;;8.15;36.00
49709;BME280;35601;55.902;13.606;2023-04-22T05:58:16;100779.14;;;8.38;35.33
49709;BME280;35601;55.902;13.606;2023-04-22T06:00:42;100779.78;;;8.26;34.30
49709;BME280;35601;55.902;13.606;2023-04-22T06:03:07;100777.03;;;8.51;33.92
49709;BME280;35601;55.902;13.606;2023-04-22T06:05:32;100772.92;;;9.02;33.92
49709;BME280;35601;55.902;13.606;2023-04-22T06:07:57;100772.90;;;8.88;33.74
49709;BME280;35601;55.902;13.606;2023-04-22T06:10:22;100768.89;;;9.50;34.02
49709;BME280;35601;55.902;13.606;2023-04-22T06:12:47;100764.18;;;9.09;32.40
49709;BME280;35601;55.902;13.606;2023-04-22T06:15:13;100758.91;;;9.57;33.24
49709;BME280;35601;55.902;13.606;2023-04-22T06:17:38;100752.76;;;9.87;32.72
49709;BME280;35601;55.902;13.606;2023-04-22T06:20:05;100755.44;;;9.99;32.24
49709;BME280;35601;55.902;13.606;2023-04-22T06:22:29;100754.93;;;10.21;32.38
49709;BME280;35601;55.902;13.606;2023-04-22T06:24:54;100755.18;;;10.73;32.32
49709;BME280;35601;55.902;13.606;2023-04-22T06:27:20;100752.10;;;11.06;30.90
49709;BME280;35601;55.902;13.606;2023-04-22T06:29:45;100751.07;;;10.76;30.48
49709;BME280;35601;55.902;13.606;2023-04-22T06:32:12;100749.79;;;11.49;30.31
49709;BME280;35601;55.902;13.606;2023-04-22T06:34:35;100751.10;;;11.34;31.31
49709;BME280;35601;55.902;13.606;2023-04-22T06:37:01;100745.67;;;11.60;30.87
49709;BME280;35601;55.902;13.606;2023-04-22T06:39:26;100745.42;;;12.02;31.82
49709;BME280;35601;55.902;13.606;2023-04-22T06:41:51;100741.84;;;12.21;32.80
49709;BME280;35601;55.902;13.606;2023-04-22T06:44:17;100744.09;;;12.57;29.71
49709;BME280;35601;55.902;13.606;2023-04-22T06:46:42;100738.61;;;12.56;29.89
49709;BME280;35601;55.902;13.606;2023-04-22T06:49:07;100736.41;;;13.13;30.17
49709;BME280;35601;55.902;13.606;2023-04-22T06:51:32;100731.91;;;13.25;29.88
49709;BME280;35601;55.902;13.606;2023-04-22T06:53:58;100728.81;;;13.65;29.23
49709;BME280;35601;55.902;13.606;2023-04-22T06:56:23;100728.17;;;13.63;29.37
49709;BME280;35601;55.902;13.606;2023-04-22T06:58:49;100726.48;;;13.96;28.60
49709;BME280;35601;55.902;13.606;2023-04-22T07:01:14;100721.45;;;13.61;29.27
49709;BME280;35601;55.902;13.606;2023-04-22T07:03:39;100721.90;;;13.21;29.08
49709;BME280;35601;55.902;13.606;2023-04-22T07:06:05;100720.90;;;13.79;29.14
49709;BME280;35601;55.902;13.606;2023-04-22T07:08:29;100722.01;;;13.16;29.02
49709;BME280;35601;55.902;13.606;2023-04-22T07:10:54;100720.14;;;13.81;28.99
49709;BME280;35601;55.902;13.606;2023-04-22T07:13:20;100720.27;;;13.29;30.21
49709;BME280;35601;55.902;13.606;2023-04-22T07:15:45;100715.70;;;13.90;29.01
49709;BME280;35601;55.902;13.606;2023-04-22T07:18:10;100716.77;;;14.32;29.07
49709;BME280;35601;55.902;13.606;2023-04-22T07:20:36;100712.46;;;13.87;29.38
49709;BME280;35601;55.902;13.606;2023-04-22T07:23:01;100713.99;;;14.11;29.44
49709;BME280;35601;55.902;13.606;2023-04-22T07:25:27;100713.01;;;14.60;28.29
49709;BME280;35601;55.902;13.606;2023-04-22T07:27:52;100711.57;;;14.09;29.11
49709;BME280;35601;55.902;13.606;2023-04-22T07:30:18;100707.61;;;13.99;30.14
49709;BME280;35601;55.902;13.606;2023-04-22T07:32:43;100709.59;;;14.24;30.93
49709;BME280;35601;55.902;13.606;2023-04-22T07:35:10;100707.99;;;14.72;29.86
49709;BME280;35601;55.902;13.606;2023-04-22T07:37:34;100704.59;;;14.73;28.71
49709;BME280;35601;55.902;13.606;2023-04-22T07:40:00;100701.64;;;15.29;28.99
49709;BME280;35601;55.902;13.606;2023-04-22T07:42:24;100701.01;;;15.15;28.03
49709;BME280;35601;55.902;13.606;2023-04-22T07:44:50;100700.17;;;14.63;28.19
49709;BME280;35601;55.902;13.606;2023-04-22T07:47:14;100695.10;;;15.35;28.26
49709;BME280;35601;55.902;13.606;2023-04-22T07:49:39;100692.63;;;15.28;28.66
49709;BME280;35601;55.902;13.606;2023-04-22T07:52:06;100693.50;;;14.60;29.13
49709;BME280;35601;55.902;13.606;2023-04-22T07:54:30;100691.66;;;14.68;28.88
49709;BME280;35601;55.902;13.606;2023-04-22T07:56:56;100692.22;;;15.21;28.92
49709;BME280;35601;55.902;13.606;2023-04-22T07:59:21;100689.29;;;15.54;28.98
49709;BME280;35601;55.902;13.606;2023-04-22T08:01:46;100686.82;;;16.04;29.57
49709;BME280;35601;55.902;13.606;2023-04-22T08:04:11;100687.29;;;15.25;27.68
49709;BME280;35601;55.902;13.606;2023-04-22T08:06:36;100688.57;;;15.04;27.84
49709;BME280;35601;55.902;13.606;2023-04-22T08:09:01;100688.13;;;15.36;28.52
49709;BME280;35601;55.902;13.606;2023-04-22T08:11:27;100687.32;;;14.88;28.37
49709;BME280;35601;55.902;13.606;2023-04-22T08:13:52;100687.26;;;14.80;29.62
49709;BME280;35601;55.902;13.606;2023-04-22T08:16:18;100688.02;;;14.86;28.22
49709;BME280;35601;55.902;13.606;2023-04-22T08:18:43;100688.19;;;14.92;29.04
49709;BME280;35601;55.902;13.606;2023-04-22T08:21:09;100685.54;;;14.36;29.41
49709;BME280;35601;55.902;13.606;2023-04-22T08:23:35;100684.16;;;14.31;31.60
49709;BME280;35601;55.902;13.606;2023-04-22T08:26:00;100684.98;;;15.06;28.69
49709;BME280;35601;55.902;13.606;2023-04-22T08:28:25;100683.19;;;15.17;28.79
49709;BME280;35601;55.902;13.606;2023-04-22T08:30:51;100680.38;;;15.27;30.13
49709;BME280;35601;55.902;13.606;2023-04-22T08:33:18;100676.03;;;15.08;30.12
49709;BME280;35601;55.902;13.606;2023-04-22T08:35:42;100673.34;;;15.06;29.62
49709;BME280;35601;55.902;13.606;2023-04-22T08:38:07;100669.68;;;15.36;29.93
49709;BME280;35601;55.902;13.606;2023-04-22T08:40:33;100668.82;;;14.97;30.77
49709;BME280;35601;55.902;13.606;2023-04-22T08:42:57;100671.17;;;15.23;30.47
49709;BME280;35601;55.902;13.606;2023-04-22T08:45:22;100670.48;;;14.97;30.66
49709;BME280;35601;55.902;13.606;2023-04-22T08:47:48;100671.87;;;14.50;29.27
49709;BME280;35601;55.902;13.606;2023-04-22T08:50:13;100670.96;;;15.02;31.72
49709;BME280;35601;55.902;13.606;2023-04-22T08:52:38;100677.43;;;14.71;29.96
49709;BME280;35601;55.902;13.606;2023-04-22T08:55:05;100677.60;;;15.18;30.54
49709;BME280;35601;55.902;13.606;2023-04-22T08:57:29;100677.41;;;14.95;30.88
49709;BME280;35601;55.902;13.606;2023-04-22T08:59:55;100677.04;;;15.16;32.47
49709;BME280;35601;55.902;13.606;2023-04-22T09:02:22;100678.87;;;15.49;29.66
49709;BME280;35601;55.902;13.606;2023-04-22T09:04:48;100674.84;;;16.04;28.97
49709;BME280;35601;55.902;13.606;2023-04-22T09:07:12;100677.54;;;15.67;29.64
49709;BME280;35601;55.902;13.606;2023-04-22T09:09:37;100682.20;;;15.77;29.58
49709;BME280;35601;55.902;13.606;2023-04-22T09:12:03;100681.71;;;15.82;29.18
49709;BME280;35601;55.902;13.606;2023-04-22T09:14:28;100679.88;;;16.92;28.14
49709;BME280;35601;55.902;13.606;2023-04-22T09:16:52;100681.39;;;16.38;29.64
49709;BME280;35601;55.902;13.606;2023-04-22T09:19:22;100681.11;;;17.20;28.82
49709;BME280;35601;55.902;13.606;2023-04-22T09:21:43;100680.24;;;16.33;28.23
49709;BME280;35601;55.902;13.606;2023-04-22T09:24:10;100679.32;;;16.98;27.74
49709;BME280;35601;55.902;13.606;2023-04-22T09:26:38;100670.91;;;17.38;26.64
49709;BME280;35601;55.902;13.606;2023-04-22T09:28:59;100674.12;;;17.76;26.87
49709;BME280;35601;55.902;13.606;2023-04-22T09:31:25;100673.61;;;16.62;27.81
49709;BME280;35601;55.902;13.606;2023-04-22T09:33:52;100668.04;;;17.18;29.25
49709;BME280;35601;55.902;13.606;2023-04-22T09:36:14;100658.78;;;16.48;28.52
49709;BME280;35601;55.902;13.606;2023-04-22T09:38:40;100654.20;;;16.50;28.50
49709;BME280;35601;55.902;13.606;2023-04-22T09:41:09;100655.89;;;15.84;28.60
49709;BME280;35601;55.902;13.606;2023-04-22T09:43:31;100653.79;;;15.75;29.06
49709;BME280;35601;55.902;13.606;2023-04-22T09:45:59;100649.43;;;16.73;28.69
49709;BME280;35601;55.902;13.606;2023-04-22T09:48:21;100643.42;;;16.12;28.85
49709;BME280;35601;55.902;13.606;2023-04-22T09:50:47;100644.89;;;15.83;29.38
49709;BME280;35601;55.902;13.606;2023-04-22T09:53:14;100640.09;;;15.97;30.41
49709;BME280;35601;55.902;13.606;2023-04-22T09:55:39;100637.85;;;16.12;29.62
49709;BME280;35601;55.902;13.606;2023-04-22T09:58:05;100633.91;;;16.42;29.69
49709;BME280;35601;55.902;13.606;2023-04-22T10:00:29;100629.08;;;16.72;28.38
49709;BME280;35601;55.902;13.606;2023-04-22T10:02:52;100627.71;;;17.32;28.21
49709;BME280;35601;55.902;13.606;2023-04-22T10:05:17;100627.77;;;17.15;28.71
49709;BME280;35601;55.902;13.606;2023-04-22T10:07:43;100626.46;;;17.52;28.07
49709;BME280;35601;55.902;13.606;2023-04-22T10:10:08;100624.93;;;17.22;29.39
49709;BME280;35601;55.902;13.606;2023-04-22T10:12:35;100626.98;;;17.61;28.18
49709;BME280;35601;55.902;13.606;2023-04-22T10:14:58;100620.44;;;17.62;26.18
49709;BME280;35601;55.902;13.606;2023-04-22T10:17:24;100620.93;;;17.51;28.64
49709;BME280;35601;55.902;13.606;2023-04-22T10:19:49;100615.59;;;17.69;28.65
49709;BME280;35601;55.902;13.606;2023-04-22T10:22:14;100617.16;;;17.83;27.66
49709;BME280;35601;55.902;13.606;2023-04-22T10:24:39;100614.54;;;17.11;27.75
49709;BME280;35601;55.902;13.606;2023-04-22T10:27:05;100607.63;;;17.31;27.66
49709;BME280;35601;55.902;13.606;2023-04-22T10:29:35;100601.70;;;18.36;28.30
49709;BME280;35601;55.902;13.606;2023-04-22T10:32:03;100601.68;;;18.34;28.98
49709;BME280;35601;55.902;13.606;2023-04-22T10:34:20;100602.22;;;17.94;27.68
49709;BME280;35601;55.902;13.606;2023-04-22T10:36:53;100596.24;;;17.87;27.85
49709;BME280;35601;55.902;13.606;2023-04-22T10:39:15;100599.06;;;18.40;26.80
49709;BME280;35601;55.902;13.606;2023-04-22T10:41:37;100596.94;;;18.52;26.55
49709;BME280;35601;55.902;13.606;2023-04-22T10:44:05;100592.01;;;18.19;28.11
49709;BME280;35601;55.902;13.606;2023-04-22T10:48:51;100592.49;;;17.60;28.72
49709;BME280;35601;55.902;13.606;2023-04-22T10:53:42;100587.85;;;17.69;29.97
49709;BME280;35601;55.902;13.606;2023-04-22T10:56:16;100590.44;;;16.72;29.01
49709;BME280;35601;55.902;13.606;2023-04-22T10:58:33;100585.95;;;17.45;28.81
49709;BME280;35601;55.902;13.606;2023-04-22T11:00:58;100585.60;;;17.46;29.29
49709;BME280;35601;55.902;13.606;2023-04-22T11:03:26;100575.16;;;17.45;29.02
49709;BME280;35601;55.902;13.606;2023-04-22T11:05:48;100577.44;;;16.57;29.21
49709;BME280;35601;55.902;13.606;2023-04-22T11:08:18;100568.93;;;17.13;28.96
49709;BME280;35601;55.902;13.606;2023-04-22T11:10:41;100571.32;;;16.88;30.02
49709;BME280;35601;55.902;13.606;2023-04-22T11:13:04;100573.15;;;17.02;29.43
49709;BME280;35601;55.902;13.606;2023-04-22T11:15:29;100567.83;;;16.67;29.91
49709;BME280;35601;55.902;13.606;2023-04-22T11:17:54;100565.42;;;16.70;29.64
49709;BME280;35601;55.902;13.606;2023-04-22T11:20:21;100557.17;;;17.01;30.21
49709;BME280;35601;55.902;13.606;2023-04-22T11:22:46;100560.10;;;17.08;28.80
49709;BME280;35601;55.902;13.606;2023-04-22T11:25:11;100559.79;;;17.53;28.46
49709;BME280;35601;55.902;13.606;2023-04-22T11:27:36;100551.83;;;17.62;27.63
49709;BME280;35601;55.902;13.606;2023-04-22T11:30:00;100551.05;;;18.00;27.50
49709;BME280;35601;55.902;13.606;2023-04-22T11:32:26;100555.30;;;17.38;27.80
49709;BME280;35601;55.902;13.606;2023-04-22T11:34:52;100547.73;;;17.81;28.43
49709;BME280;35601;55.902;13.606;2023-04-22T11:37:19;100551.01;;;17.57;28.34
49709;BME280;35601;55.902;13.606;2023-04-22T11:39:40;100552.08;;;17.36;28.66
49709;BME280;35601;55.902;13.606;2023-04-22T11:42:05;100549.92;;;17.26;27.22
49709;BME280;35601;55.902;13.606;2023-04-22T11:44:31;100547.58;;;17.35;27.66
49709;BME280;35601;55.902;13.606;2023-04-22T11:46:56;100549.54;;;17.20;28.68
49709;BME280;35601;55.902;13.606;2023-04-22T11:49:22;100544.95;;;17.56;27.53
49709;BME280;35601;55.902;13.606;2023-04-22T11:51:53;100542.82;;;17.77;26.76
49709;BME280;35601;55.902;13.606;2023-04-22T11:54:13;100542.75;;;17.83;27.82
49709;BME280;35601;55.902;13.606;2023-04-22T11:56:38;100536.44;;;17.95;26.70
49709;BME280;35601;55.902;13.606;2023-04-22T11:59:08;100532.18;;;17.65;28.97
49709;BME280;35601;55.902;13.606;2023-04-22T12:01:28;100520.81;;;17.48;27.51
49709;BME280;35601;55.902;13.606;2023-04-22T12:03:58;100527.92;;;17.15;28.05
49709;BME280;35601;55.902;13.606;2023-04-22T12:06:17;100521.42;;;17.36;28.19
49709;BME280;35601;55.902;13.606;2023-04-22T12:08:44;100517.62;;;17.51;28.30
49709;BME280;35601;55.902;13.606;2023-04-22T12:11:10;100523.06;;;17.94;27.99
49709;BME280;35601;55.902;13.606;2023-04-22T12:13:40;100516.03;;;17.60;27.41
49709;BME280;35601;55.902;13.606;2023-04-22T12:16:00;100516.18;;;18.04;26.32
49709;BME280;35601;55.902;13.606;2023-04-22T12:18:28;100515.51;;;16.63;27.46
49709;BME280;35601;55.902;13.606;2023-04-22T12:20:50;100506.64;;;17.75;27.32
49709;BME280;35601;55.902;13.606;2023-04-22T12:23:15;100516.92;;;17.67;27.11
49709;BME280;35601;55.902;13.606;2023-04-22T12:25:40;100513.00;;;17.00;27.37
49709;BME280;35601;55.902;13.606;2023-04-22T12:28:04;100509.39;;;17.24;27.84
49709;BME280;35601;55.902;13.606;2023-04-22T12:30:31;100508.56;;;16.83;27.66
49709;BME280;35601;55.902;13.606;2023-04-22T12:32:55;100512.57;;;16.53;28.17
49709;BME280;35601;55.902;13.606;2023-04-22T12:35:20;100504.14;;;16.94;30.32
49709;BME280;35601;55.902;13.606;2023-04-22T12:37:45;100504.55;;;16.85;29.76